createdAt,value
2022-09-26T00:01:43.610Z,30.40
2022-09-26T00:04:22.670Z,28.60
2022-09-26T00:06:55.255Z,29.70
2022-09-26T00:09:25.758Z,29.90
2022-09-26T00:11:54.459Z,30.50
2022-09-26T00:14:25.777Z,28.70
2022-09-26T00:16:54.460Z,28.40
2022-09-26T00:19:23.857Z,29.60
2022-09-26T00:21:52.509Z,28.00
2022-09-26T00:24:21.068Z,29.50
2022-09-26T00:26:49.683Z,29.80
2022-09-26T00:29:18.185Z,29.10
2022-09-26T00:31:48.410Z,29.40
2022-09-26T00:34:19.251Z,29.40
2022-09-26T00:36:49.753Z,29.40
2022-09-26T00:39:18.377Z,30.80
2022-09-26T00:41:46.865Z,30.10
2022-09-26T00:44:40.649Z,30.00
2022-09-26T00:47:21.291Z,29.50
2022-09-26T00:49:52.781Z,30.40
2022-09-26T00:52:26.335Z,30.80
2022-09-26T00:54:59.064Z,30.00
2022-09-26T00:57:33.171Z,29.60
2022-09-26T01:00:05.447Z,30.20
2022-09-26T01:02:34.707Z,30.00
2022-09-26T01:05:07.001Z,31.90
2022-09-26T01:07:35.895Z,30.10
2022-09-26T01:10:06.511Z,29.50
2022-09-26T01:12:37.539Z,29.90
2022-09-26T01:15:09.227Z,29.80
2022-09-26T01:17:39.785Z,29.10
2022-09-26T01:20:24.360Z,29.20
2022-09-26T01:23:24.395Z,28.00
2022-09-26T01:26:19.778Z,27.90
2022-09-26T01:29:08.220Z,28.00
2022-09-26T01:32:06.434Z,27.90
2022-09-26T01:34:43.574Z,29.30
2022-09-26T01:37:22.344Z,29.70
2022-09-26T01:40:03.019Z,29.90
2022-09-26T01:42:39.650Z,28.30
2022-09-26T01:45:17.559Z,27.90
2022-09-26T01:47:55.305Z,29.20
2022-09-26T01:50:31.362Z,28.00
2022-09-26T01:53:05.272Z,28.30
2022-09-26T01:55:40.234Z,29.00
2022-09-26T01:58:14.049Z,28.90
2022-09-26T02:00:46.858Z,29.50
2022-09-26T02:03:19.073Z,28.20
2022-09-26T02:05:52.628Z,29.40
2022-09-26T02:08:26.450Z,29.00
2022-09-26T02:11:01.685Z,28.20
2022-09-26T02:13:35.242Z,28.00
2022-09-26T02:16:07.912Z,26.90
2022-09-26T02:18:41.076Z,29.00
2022-09-26T02:21:14.610Z,27.80
2022-09-26T02:23:43.387Z,26.40
2022-09-26T02:26:11.976Z,26.50
2022-09-26T02:28:42.783Z,27.10
2022-09-26T02:31:19.933Z,26.20
2022-09-26T02:33:49.510Z,27.30
2022-09-26T02:36:20.582Z,26.90
2022-09-26T02:38:49.101Z,27.40
2022-09-26T02:41:45.830Z,27.80
2022-09-26T02:44:30.042Z,27.40
2022-09-26T02:47:17.421Z,28.90
2022-09-26T02:50:02.402Z,29.30
2022-09-26T02:52:42.617Z,27.60
2022-09-26T02:55:20.672Z,26.50
2022-09-26T02:58:05.137Z,27.40
2022-09-26T03:00:48.232Z,27.60
2022-09-26T03:03:22.355Z,28.50
2022-09-26T03:05:54.725Z,27.90
2022-09-26T03:08:26.859Z,27.50
2022-09-26T03:11:02.068Z,28.10
2022-09-26T03:13:35.671Z,27.20
2022-09-26T03:16:06.257Z,26.50
2022-09-26T03:18:40.160Z,26.00
2022-09-26T03:21:09.377Z,26.00
2022-09-26T03:23:38.647Z,27.00
2022-09-26T03:26:12.109Z,26.40
2022-09-26T03:28:47.536Z,26.80
2022-09-26T03:31:21.794Z,26.50
2022-09-26T03:33:55.689Z,26.40
2022-09-26T03:36:24.345Z,27.70
2022-09-26T03:38:53.018Z,26.60
2022-09-26T03:41:44.620Z,26.80
2022-09-26T03:44:30.016Z,26.90
2022-09-26T03:47:16.619Z,26.70
2022-09-26T03:49:46.646Z,26.40
2022-09-26T03:52:15.194Z,27.20
2022-09-26T03:54:45.182Z,26.60
2022-09-26T03:57:15.006Z,27.80
2022-09-26T03:59:54.598Z,26.30
2022-09-26T04:02:23.194Z,25.90
2022-09-26T04:04:57.392Z,27.00
2022-09-26T04:07:26.173Z,25.90
2022-09-26T04:09:54.740Z,27.40
2022-09-26T04:12:23.226Z,27.70
2022-09-26T04:14:53.789Z,27.30
2022-09-26T04:17:23.752Z,27.10
2022-09-26T04:19:52.119Z,27.40
2022-09-26T04:22:20.854Z,27.60
2022-09-26T04:24:50.973Z,26.40
2022-09-26T04:27:23.110Z,27.70
2022-09-26T04:29:51.639Z,27.40
2022-09-26T04:32:38.135Z,25.90
2022-09-26T04:35:26.741Z,27.30
2022-09-26T04:37:55.213Z,27.10
2022-09-26T04:40:23.799Z,26.20
2022-09-26T04:43:01.302Z,27.30
2022-09-26T04:45:29.836Z,28.40
2022-09-26T04:47:58.315Z,26.70
2022-09-26T04:50:28.310Z,26.90
2022-09-26T04:53:06.705Z,27.00
2022-09-26T04:55:38.788Z,26.10
2022-09-26T04:58:07.181Z,27.10
2022-09-26T05:00:35.713Z,28.30
2022-09-26T05:03:09.110Z,28.80
2022-09-26T05:05:38.585Z,28.20
2022-09-26T05:08:07.301Z,29.40
2022-09-26T05:10:35.757Z,29.20
2022-09-26T05:13:04.310Z,27.80
2022-09-26T05:15:39.253Z,28.50
2022-09-26T05:18:10.722Z,29.30
2022-09-26T05:20:39.651Z,29.00
2022-09-26T05:23:10.064Z,29.50
2022-09-26T05:25:59.507Z,30.30
2022-09-26T05:28:28.007Z,28.90
2022-09-26T05:30:56.673Z,29.10
2022-09-26T05:33:25.371Z,28.80
2022-09-26T05:35:54.206Z,27.50
2022-09-26T05:38:22.727Z,29.90
2022-09-26T05:40:57.613Z,30.70
2022-09-26T05:43:28.939Z,30.50
2022-09-26T05:45:59.507Z,30.20
2022-09-26T05:48:32.052Z,31.10
2022-09-26T05:51:10.347Z,29.00
2022-09-26T05:53:43.046Z,30.20
2022-09-26T05:56:18.249Z,29.80
2022-09-26T05:59:06.434Z,29.60
2022-09-26T06:01:54.288Z,29.30
2022-09-26T06:04:31.676Z,30.30
2022-09-26T06:07:13.541Z,30.30
2022-09-26T06:09:44.057Z,30.70
2022-09-26T06:12:18.979Z,29.10
2022-09-26T06:14:47.403Z,31.50
2022-09-26T06:17:15.900Z,30.50
2022-09-26T06:19:45.075Z,31.30
2022-09-26T06:22:13.972Z,29.20
2022-09-26T06:24:42.592Z,30.60
2022-09-26T06:27:13.405Z,31.10
2022-09-26T06:29:43.071Z,30.10
2022-09-26T06:32:11.763Z,28.80
2022-09-26T06:34:43.190Z,28.80
2022-09-26T06:37:32.166Z,30.00
2022-09-26T06:40:02.476Z,30.40
2022-09-26T06:42:37.433Z,31.20
2022-09-26T06:45:21.189Z,30.10
2022-09-26T06:48:11.400Z,29.50
2022-09-26T06:51:00.161Z,29.40
2022-09-26T06:53:30.240Z,30.50
2022-09-26T06:55:59.884Z,29.30
2022-09-26T06:58:28.676Z,29.20
2022-09-26T07:01:08.167Z,30.10
2022-09-26T07:03:45.986Z,31.00
2022-09-26T07:06:28.463Z,30.30
2022-09-26T07:09:03.176Z,31.30
2022-09-26T07:12:14.243Z,29.70
2022-09-26T07:14:43.087Z,30.00
2022-09-26T07:17:32.452Z,30.10
2022-09-26T07:20:20.470Z,31.30
2022-09-26T07:23:08.062Z,30.70
2022-09-26T07:25:38.937Z,30.40
2022-09-26T07:28:09.467Z,32.20
2022-09-26T07:30:59.070Z,31.40
2022-09-26T07:33:47.881Z,29.70
2022-09-26T07:36:17.897Z,28.20
2022-09-26T07:38:48.738Z,30.10
2022-09-26T07:41:18.722Z,30.60
2022-09-26T07:46:55.124Z,29.40
2022-09-26T07:49:42.840Z,30.60
2022-09-26T07:52:37.421Z,28.70
2022-09-26T07:55:25.913Z,29.70
2022-09-26T07:58:13.082Z,30.50
2022-09-26T08:01:00.004Z,28.10
2022-09-26T08:03:47.970Z,27.90
2022-09-26T08:06:36.689Z,27.20
2022-09-26T08:09:05.456Z,27.00
2022-09-26T08:11:52.691Z,27.80
2022-09-26T08:14:40.015Z,27.10
2022-09-26T08:17:32.044Z,26.40
2022-09-26T08:20:01.141Z,26.00
2022-09-26T08:22:30.397Z,25.20
2022-09-26T08:25:00.254Z,24.60
2022-09-26T08:27:47.987Z,22.20
2022-09-26T08:30:17.287Z,21.60
2022-09-26T08:32:53.424Z,20.40
2022-09-26T08:35:22.062Z,21.90
2022-09-26T08:38:16.793Z,28.80
2022-09-26T08:40:55.547Z,21.90
2022-09-26T08:43:52.069Z,19.80
2022-09-26T08:46:51.019Z,19.30
2022-09-26T08:49:42.183Z,17.80
2022-09-26T08:52:29.355Z,18.10
2022-09-26T08:55:01.155Z,18.40
2022-09-26T08:57:36.586Z,17.70
2022-09-26T09:00:18.285Z,17.60
2022-09-26T09:03:01.280Z,17.70
2022-09-26T09:05:33.796Z,16.40
2022-09-26T09:08:08.840Z,17.00
2022-09-26T09:10:53.292Z,17.10
2022-09-26T09:13:48.436Z,17.30
2022-09-26T09:16:41.587Z,18.50
2022-09-26T09:19:39.919Z,18.90
2022-09-26T09:23:12.103Z,18.80
2022-09-26T09:25:54.607Z,17.60
2022-09-26T09:28:34.316Z,20.50
2022-09-26T09:31:06.268Z,19.50
2022-09-26T09:34:08.937Z,18.00
2022-09-26T09:37:02.446Z,19.60
2022-09-26T09:39:50.810Z,19.30
2022-09-26T09:42:36.515Z,24.70
2022-09-26T09:45:16.575Z,18.90
2022-09-26T09:47:46.691Z,19.20
2022-09-26T09:50:25.415Z,18.20
2022-09-26T09:53:05.650Z,18.20
2022-09-26T09:55:46.675Z,17.50
2022-09-26T09:58:29.204Z,17.00
2022-09-26T10:01:09.211Z,18.00
2022-09-26T10:03:43.528Z,18.20
2022-09-26T10:06:45.245Z,17.20
2022-09-26T10:09:39.242Z,18.10
2022-09-26T10:12:23.081Z,17.40
2022-09-26T10:15:19.360Z,17.90
2022-09-26T10:18:27.049Z,18.30
2022-09-26T10:21:27.940Z,16.50
2022-09-26T10:23:58.457Z,16.20
2022-09-26T10:26:44.198Z,17.50
2022-09-26T10:29:24.016Z,17.80
2022-09-26T10:31:59.717Z,17.80
2022-09-26T10:34:30.706Z,18.00
2022-09-26T10:37:20.903Z,17.30
2022-09-26T10:40:12.328Z,16.00
2022-09-26T10:42:46.069Z,15.60
2022-09-26T10:45:19.797Z,17.80
2022-09-26T10:48:21.500Z,15.70
2022-09-26T10:51:14.468Z,16.20
2022-09-26T10:53:51.455Z,13.90
2022-09-26T10:56:26.553Z,13.50
2022-09-26T10:58:59.612Z,17.90
2022-09-26T11:01:30.832Z,22.40
2022-09-26T11:04:36.383Z,21.00
2022-09-26T11:07:29.808Z,22.70
2022-09-26T11:10:24.752Z,20.80
2022-09-26T11:13:18.309Z,23.20
2022-09-26T11:16:00.559Z,23.20
2022-09-26T11:18:40.117Z,22.20
2022-09-26T11:21:28.265Z,23.60
2022-09-26T11:24:10.969Z,19.30
2022-09-26T11:26:49.019Z,16.40
2022-09-26T11:29:24.167Z,16.10
2022-09-26T11:32:05.089Z,14.50
2022-09-26T11:35:02.362Z,14.90
2022-09-26T11:37:50.147Z,15.40
2022-09-26T11:40:35.308Z,15.30
2022-09-26T11:43:14.993Z,17.00
2022-09-26T11:45:58.893Z,17.20
2022-09-26T11:49:34.590Z,16.00
2022-09-26T11:52:57.816Z,17.30
2022-09-26T11:55:32.786Z,15.60
2022-09-26T11:58:11.067Z,15.20
2022-09-26T12:00:50.949Z,15.10
2022-09-26T12:03:45.016Z,17.00
2022-09-26T12:06:25.336Z,18.20
2022-09-26T12:09:18.321Z,17.00
2022-09-26T12:11:59.448Z,16.40
2022-09-26T12:14:42.517Z,15.90
2022-09-26T12:17:19.555Z,17.50
2022-09-26T12:19:57.434Z,18.10
2022-09-26T12:22:34.416Z,61.30
2022-09-26T12:25:29.918Z,22.40
2022-09-26T12:28:11.166Z,19.80
2022-09-26T12:30:48.374Z,20.40
2022-09-26T12:33:49.730Z,18.60
2022-09-26T12:36:30.620Z,21.50
2022-09-26T12:39:16.794Z,19.00
2022-09-26T12:42:03.893Z,21.60
2022-09-26T12:44:55.141Z,23.70
2022-09-26T12:47:42.814Z,20.00
2022-09-26T12:50:24.422Z,18.00
2022-09-26T12:53:25.852Z,19.20
2022-09-26T12:56:05.639Z,20.90
2022-09-26T12:58:45.509Z,21.40
2022-09-26T13:01:30.470Z,20.90
2022-09-26T13:04:23.490Z,18.90
2022-09-26T13:07:18.870Z,21.90
2022-09-26T13:10:15.355Z,20.60
2022-09-26T13:13:02.513Z,19.00
2022-09-26T13:15:39.429Z,18.60
2022-09-26T13:18:15.618Z,17.80
2022-09-26T13:20:49.397Z,18.70
2022-09-26T13:23:26.840Z,18.10
2022-09-26T13:26:00.077Z,17.50
2022-09-26T13:28:37.175Z,17.70
2022-09-26T13:31:18.379Z,18.00
2022-09-26T13:33:52.329Z,20.60
2022-09-26T13:36:22.555Z,18.40
2022-09-26T13:38:58.425Z,20.20
2022-09-26T13:41:38.072Z,16.70
2022-09-26T13:44:22.305Z,16.00
2022-09-26T13:47:01.147Z,15.00
2022-09-26T13:49:43.097Z,13.60
2022-09-26T13:52:27.586Z,13.80
2022-09-26T13:55:01.467Z,12.90
2022-09-26T13:57:38.247Z,12.50
2022-09-26T14:00:40.191Z,12.80
2022-09-26T14:03:44.258Z,14.30
2022-09-26T14:06:33.099Z,12.40
2022-09-26T14:09:27.541Z,13.30
2022-09-26T14:12:33.965Z,12.10
2022-09-26T14:15:23.586Z,12.20
2022-09-26T14:18:07.028Z,14.50
2022-09-26T14:20:50.653Z,14.40
2022-09-26T14:23:34.664Z,13.80
2022-09-26T14:26:07.896Z,13.10
2022-09-26T14:28:38.641Z,12.10
2022-09-26T14:31:43.638Z,12.00
2022-09-26T14:34:22.242Z,11.90
2022-09-26T14:36:52.823Z,11.90
2022-09-26T14:39:31.419Z,12.30
2022-09-26T14:42:08.312Z,12.00
2022-09-26T14:44:38.478Z,11.70
2022-09-26T14:47:15.901Z,11.30
2022-09-26T14:49:54.123Z,11.10
2022-09-26T14:52:24.701Z,12.30
2022-09-26T14:55:00.453Z,10.70
2022-09-26T14:57:32.770Z,12.00
2022-09-26T15:00:22.414Z,10.90
2022-09-26T15:03:00.261Z,11.00
2022-09-26T15:05:31.250Z,11.80
2022-09-26T15:08:00.661Z,11.20
2022-09-26T15:10:41.213Z,11.90
2022-09-26T15:13:21.916Z,10.80
2022-09-26T15:15:57.763Z,11.60
2022-09-26T15:18:37.196Z,11.20
2022-09-26T15:21:18.350Z,10.90
2022-09-26T15:23:49.758Z,10.00
2022-09-26T15:26:21.811Z,11.20
2022-09-26T15:28:52.184Z,10.40
2022-09-26T15:31:27.627Z,11.30
2022-09-26T15:34:01.489Z,11.10
2022-09-26T15:36:31.602Z,12.30
2022-09-26T15:39:01.458Z,13.60
2022-09-26T15:41:48.518Z,15.30
2022-09-26T15:44:30.423Z,16.50
2022-09-26T15:46:59.271Z,14.10
2022-09-26T15:49:28.114Z,15.10
2022-09-26T15:51:57.430Z,14.40
2022-09-26T15:54:30.487Z,16.60
2022-09-26T15:57:02.271Z,16.20
2022-09-26T15:59:38.582Z,14.50
2022-09-26T16:02:25.688Z,13.80
2022-09-26T16:04:55.253Z,14.60
2022-09-26T16:07:27.388Z,14.10
2022-09-26T16:09:57.634Z,14.90
2022-09-26T16:12:29.211Z,15.50
2022-09-26T16:15:03.058Z,15.70
2022-09-26T16:17:35.238Z,16.00
2022-09-26T16:20:21.444Z,15.90
2022-09-26T16:22:51.431Z,16.00
2022-09-26T16:25:52.212Z,16.10
2022-09-26T16:28:36.997Z,15.20
2022-09-26T16:31:23.775Z,15.60
2022-09-26T16:33:54.708Z,15.90
2022-09-26T16:36:25.231Z,16.10
2022-09-26T16:38:56.437Z,16.60
2022-09-26T16:41:56.140Z,16.70
2022-09-26T16:44:27.380Z,16.10
2022-09-26T16:47:01.073Z,16.80
2022-09-26T16:49:42.345Z,16.60
2022-09-26T16:52:24.563Z,15.90
2022-09-26T16:54:53.457Z,17.20
2022-09-26T16:57:26.142Z,17.80
2022-09-26T17:00:17.455Z,18.00
2022-09-26T17:02:46.721Z,17.60
2022-09-26T17:05:18.832Z,16.80
2022-09-26T17:07:49.619Z,17.10
2022-09-26T17:10:19.546Z,19.70
2022-09-26T17:12:50.850Z,19.40
2022-09-26T17:15:25.931Z,17.40
2022-09-26T17:18:00.510Z,17.40
2022-09-26T17:20:29.542Z,17.30
2022-09-26T17:22:58.291Z,18.20
2022-09-26T17:25:27.143Z,22.10
2022-09-26T17:27:58.982Z,18.90
2022-09-26T17:30:28.942Z,18.90
2022-09-26T17:32:58.480Z,18.30
2022-09-26T17:35:31.419Z,18.40
2022-09-26T17:38:00.491Z,17.30
2022-09-26T17:40:31.461Z,17.60
2022-09-26T17:43:01.502Z,17.60
2022-09-26T17:45:33.329Z,18.60
2022-09-26T17:48:04.911Z,18.40
2022-09-26T17:50:34.923Z,18.00
2022-09-26T17:53:03.763Z,16.90
2022-09-26T17:55:32.958Z,18.40
2022-09-26T17:58:04.466Z,18.40
2022-09-26T18:00:38.324Z,18.90
2022-09-26T18:03:10.688Z,20.20
2022-09-26T18:05:39.937Z,19.60
2022-09-26T18:08:16.741Z,23.50
2022-09-26T18:10:49.555Z,24.10
2022-09-26T18:13:25.527Z,24.20
2022-09-26T18:15:55.169Z,23.10
2022-09-26T18:18:27.260Z,23.50
2022-09-26T18:20:58.156Z,25.40
2022-09-26T18:23:29.231Z,28.00
2022-09-26T18:25:59.318Z,29.00
2022-09-26T18:28:28.200Z,32.10
2022-09-26T18:31:00.250Z,35.70
2022-09-26T18:33:35.774Z,34.40
2022-09-26T18:36:12.010Z,31.00
2022-09-26T18:38:40.728Z,29.90
2022-09-26T18:41:11.078Z,27.30
2022-09-26T18:43:41.804Z,25.60
2022-09-26T18:46:13.382Z,25.30
2022-09-26T18:48:42.502Z,24.40
2022-09-26T18:51:12.110Z,23.00
2022-09-26T18:53:41.443Z,23.00
2022-09-26T18:56:29.502Z,22.10
2022-09-26T18:58:58.269Z,23.20
2022-09-26T19:01:30.092Z,23.00
2022-09-26T19:04:00.903Z,23.50
2022-09-26T19:06:34.308Z,25.20
2022-09-26T19:09:05.689Z,23.20
2022-09-26T19:11:35.611Z,23.70
2022-09-26T19:14:13.207Z,22.70
2022-09-26T19:16:44.596Z,22.50
2022-09-26T19:19:14.003Z,23.20
2022-09-26T19:21:46.214Z,22.70
2022-09-26T19:24:20.870Z,22.20
2022-09-26T19:26:54.072Z,22.20
2022-09-26T19:29:29.905Z,22.00
2022-09-26T19:31:58.924Z,21.60
2022-09-26T19:34:32.526Z,23.10
2022-09-26T19:37:02.459Z,23.40
2022-09-26T19:39:31.838Z,22.00
2022-09-26T19:42:01.117Z,22.00
2022-09-26T19:44:29.740Z,23.40
2022-09-26T19:46:59.251Z,22.50
2022-09-26T19:49:30.581Z,20.70
2022-09-26T19:52:00.580Z,22.80
2022-09-26T19:54:29.322Z,23.70
2022-09-26T19:56:58.387Z,22.00
2022-09-26T19:59:27.753Z,23.30
2022-09-26T20:01:56.584Z,22.50
2022-09-26T20:04:26.623Z,22.00
2022-09-26T20:06:55.033Z,22.90
2022-09-26T20:09:23.410Z,23.70
2022-09-26T20:11:52.773Z,23.30
2022-09-26T20:14:24.038Z,24.70
2022-09-26T20:16:55.106Z,24.00
2022-09-26T20:19:35.659Z,23.40
2022-09-26T20:22:06.881Z,23.90
2022-09-26T20:24:37.866Z,23.70
2022-09-26T20:27:10.476Z,24.60
2022-09-26T20:29:57.308Z,24.90
2022-09-26T20:32:25.924Z,26.50
2022-09-26T20:34:59.741Z,26.70
2022-09-26T20:37:31.141Z,24.30
2022-09-26T20:51:00.060Z,24.40
2022-09-26T20:53:31.959Z,25.20
2022-09-26T20:56:04.175Z,23.30
2022-09-26T20:58:36.023Z,23.20
2022-09-26T21:01:12.039Z,23.10
2022-09-26T21:03:46.925Z,23.60
2022-09-26T21:06:21.196Z,24.30
2022-09-26T21:08:53.376Z,25.70
2022-09-26T21:11:25.593Z,22.80
2022-09-26T21:13:57.576Z,23.20
2022-09-26T21:16:29.563Z,23.30
2022-09-26T21:19:01.819Z,23.10
2022-09-26T21:21:33.664Z,22.90
2022-09-26T21:24:24.815Z,23.20
2022-09-26T21:26:57.397Z,22.40
2022-09-26T21:29:29.887Z,23.90
2022-09-26T21:32:04.602Z,24.90
2022-09-26T21:34:38.837Z,24.00
2022-09-26T21:37:12.308Z,24.60
2022-09-26T21:39:44.177Z,25.00
2022-09-26T21:42:16.451Z,25.40
2022-09-26T21:44:54.260Z,24.10
2022-09-26T21:47:26.637Z,25.00
2022-09-26T21:49:58.485Z,23.70
2022-09-26T21:52:37.015Z,24.60
2022-09-26T21:55:13.934Z,25.50
2022-09-26T21:57:48.130Z,25.00
2022-09-26T22:00:20.064Z,25.30
2022-09-26T22:02:52.001Z,23.90
2022-09-26T22:05:23.983Z,24.10
2022-09-26T22:07:57.430Z,25.70
2022-09-26T22:10:29.799Z,26.00
2022-09-26T22:13:01.720Z,24.80
2022-09-26T22:15:33.570Z,26.10
2022-09-26T22:18:05.931Z,25.20
2022-09-26T22:20:38.228Z,26.50
2022-09-26T22:23:10.107Z,25.80
2022-09-26T22:25:43.004Z,26.50
2022-09-26T22:28:14.924Z,25.70
2022-09-26T22:30:46.833Z,25.70
2022-09-26T22:33:20.095Z,26.30
2022-09-26T22:35:52.605Z,26.60
2022-09-26T22:38:24.447Z,25.40
2022-09-26T22:41:00.758Z,24.90
2022-09-26T22:43:34.038Z,25.70
2022-09-26T22:46:08.749Z,26.20
2022-09-26T22:48:42.888Z,25.80
2022-09-26T22:51:15.449Z,26.10
2022-09-26T22:53:47.562Z,25.70
2022-09-26T22:56:20.071Z,26.80
2022-09-26T22:58:53.474Z,26.90
2022-09-26T23:01:28.846Z,27.00
2022-09-26T23:04:01.337Z,25.50
2022-09-26T23:06:34.039Z,26.80
2022-09-26T23:09:08.876Z,25.50
2022-09-26T23:11:41.059Z,25.60
2022-09-26T23:14:12.832Z,25.10
2022-09-26T23:16:44.658Z,25.20
2022-09-26T23:19:16.952Z,26.20
2022-09-26T23:21:49.168Z,27.00
2022-09-26T23:24:21.391Z,27.40
2022-09-26T23:26:53.320Z,26.20
2022-09-26T23:29:25.438Z,25.00
2022-09-26T23:31:57.991Z,25.90
2022-09-26T23:34:29.738Z,25.60
2022-09-26T23:37:01.595Z,25.30
2022-09-26T23:39:33.474Z,25.70
2022-09-26T23:42:05.448Z,25.40
2022-09-26T23:44:37.313Z,26.00
2022-09-26T23:47:11.527Z,27.20
2022-09-26T23:49:43.338Z,26.20
2022-09-26T23:52:15.194Z,26.60
2022-09-26T23:54:47.273Z,25.30
2022-09-26T23:57:19.052Z,26.60
2022-09-26T23:59:50.824Z,26.20
